Ryouei Maru — JL6703 — position and weather

sailwx.info

Track history (hours):
 
Tides and Currents Weather Stations Pressure Air Temp Water Temp Dewpoint Dewpoint Depression Visibility Wind Speed Wind Dir Waves Ship Positions

Ryouei Maru

Last reported at 2014-Oct-31 07:30 UTC. Time now 2014-Oct-31 07:43 UTC.
Position N 34°37' E 135°26'.

Length 95 m; draft 5 m.

Type: Cargo ship. MMSI: 431501749.

Date/timePositionNaut miles runAvg speedWind from/ knotsBaromVisibWave heightAir tempDewpointWater temp
2014-Oct-31 07:30N 34°37' E 135°26'0 0.0
2014-Oct-31 04:18N 34°37' E 135°26'0 0.0
2014-Oct-31 03:06N 34°37' E 135°26'0 0.1
2014-Oct-31 02:30N 34°37' E 135°26'0 0.0
2014-Oct-31 01:06N 34°37' E 135°26'0 0.1
2014-Oct-31 00:30N 34°37' E 135°26'0 0.0
2014-Oct-30 22:30N 34°37' E 135°26'3 3.5
2014-Oct-30 21:33N 34°37' E 135°22'3 3.0
2014-Oct-30 20:26N 34°35' E 135°18'0 0.0
2014-Oct-30 19:32N 34°35' E 135°18'0 0.5
2014-Oct-30 18:33N 34°35' E 135°17'1312.5
2014-Oct-30 17:32N 34°25' E 135°07'1212.1
2014-Oct-30 16:32N 34°15' E 134°59'1313.1
2014-Oct-30 15:33N 34°02' E 135°01'  
2014-Oct-25 13:10N 34°03' E 134°60'813.1
2014-Oct-25 12:33N 34°11' E 134°59'1312.4
2014-Oct-25 11:31N 34°24' E 135°01'1313.1
2014-Oct-25 10:33N 34°31' E 135°13'1211.8
2014-Oct-25 09:33N 34°37' E 135°25'0 0.4
2014-Oct-25 08:31N 34°37' E 135°26'0 0.0
2014-Oct-25 07:25N 34°37' E 135°26'0 0.0
2014-Oct-25 06:31N 34°37' E 135°26'0 0.0
2014-Oct-25 05:31N 34°37' E 135°26'0 0.0
2014-Oct-25 02:25N 34°37' E 135°26'0 0.0
2014-Oct-25 01:31N 34°37' E 135°26'0 0.0
2014-Oct-24 22:31N 34°37' E 135°26'5 5.1
2014-Oct-24 21:33N 34°36' E 135°20'1 1.5
2014-Oct-24 20:33N 34°35' E 135°18'0 0.0
2014-Oct-24 19:33N 34°35' E 135°18'1 0.8
2014-Oct-24 18:33N 34°34' E 135°17'1212.0
2014-Oct-24 17:33N 34°25' E 135°08'1111.1
2014-Oct-24 16:31N 34°16' E 134°59'1111.8
2014-Oct-24 15:33N 34°05' E 135°00'  
Track history (hours):
 
Tides and Currents Weather Stations Pressure Air Temp Water Temp Dewpoint Dewpoint Depression Visibility Wind Speed Wind Dir Waves Ship Positions

Ryouei Maru

Last reported at 2014-Oct-31 07:30 UTC. Time now 2014-Oct-31 07:43 UTC.
Position N 34°37' E 135°26'.

Length 95 m; draft 5 m.

Type: Cargo ship. MMSI: 431501749.

Date/timePositionNaut miles runAvg speedWind from/ knotsBaromVisibWave heightAir tempDewpointWater temp
2014-Oct-31 07:30N 34°37' E 135°26'0 0.0
2014-Oct-31 04:18N 34°37' E 135°26'0 0.0
2014-Oct-31 03:06N 34°37' E 135°26'0 0.1
2014-Oct-31 02:30N 34°37' E 135°26'0 0.0
2014-Oct-31 01:06N 34°37' E 135°26'0 0.1
2014-Oct-31 00:30N 34°37' E 135°26'0 0.0
2014-Oct-30 22:30N 34°37' E 135°26'3 3.5
2014-Oct-30 21:33N 34°37' E 135°22'3 3.0
2014-Oct-30 20:26N 34°35' E 135°18'0 0.0
2014-Oct-30 19:32N 34°35' E 135°18'0 0.5
2014-Oct-30 18:33N 34°35' E 135°17'1312.5
2014-Oct-30 17:32N 34°25' E 135°07'1212.1
2014-Oct-30 16:32N 34°15' E 134°59'1313.1
2014-Oct-30 15:33N 34°02' E 135°01'  
2014-Oct-25 13:10N 34°03' E 134°60'813.1
2014-Oct-25 12:33N 34°11' E 134°59'1312.4
2014-Oct-25 11:31N 34°24' E 135°01'1313.1
2014-Oct-25 10:33N 34°31' E 135°13'1211.8
2014-Oct-25 09:33N 34°37' E 135°25'0 0.4
2014-Oct-25 08:31N 34°37' E 135°26'0 0.0
2014-Oct-25 07:25N 34°37' E 135°26'0 0.0
2014-Oct-25 06:31N 34°37' E 135°26'0 0.0
2014-Oct-25 05:31N 34°37' E 135°26'0 0.0
2014-Oct-25 02:25N 34°37' E 135°26'0 0.0
2014-Oct-25 01:31N 34°37' E 135°26'0 0.0
2014-Oct-24 22:31N 34°37' E 135°26'5 5.1
2014-Oct-24 21:33N 34°36' E 135°20'1 1.5
2014-Oct-24 20:33N 34°35' E 135°18'0 0.0
2014-Oct-24 19:33N 34°35' E 135°18'1 0.8
2014-Oct-24 18:33N 34°34' E 135°17'1212.0
2014-Oct-24 17:33N 34°25' E 135°08'1111.1
2014-Oct-24 16:31N 34°16' E 134°59'1111.8
2014-Oct-24 15:33N 34°05' E 135°00'  

Dump ship's entire track history